sensor_id;sensor_type;location;lat;lon;timestamp;P1;durP1;ratioP1;P2;durP2;ratioP2
58978;SDS011;44763;50.464;30.612;2024-03-08T00:01:22;33.40;;;22.50;;
58978;SDS011;44763;50.464;30.612;2024-03-08T00:03:24;30.90;;;21.50;;
58978;SDS011;44763;50.464;30.612;2024-03-08T00:05:26;35.20;;;22.40;;
58978;SDS011;44763;50.464;30.612;2024-03-08T00:07:28;32.00;;;23.00;;
58978;SDS011;44763;50.464;30.612;2024-03-08T00:09:30;31.10;;;21.70;;
58978;SDS011;44763;50.464;30.612;2024-03-08T00:11:33;35.30;;;24.00;;
58978;SDS011;44763;50.464;30.612;2024-03-08T00:13:37;35.40;;;25.00;;
58978;SDS011;44763;50.464;30.612;2024-03-08T00:15:39;37.40;;;24.60;;
58978;SDS011;44763;50.464;30.612;2024-03-08T00:17:44;36.30;;;24.00;;
58978;SDS011;44763;50.464;30.612;2024-03-08T00:19:47;33.10;;;23.10;;
58978;SDS011;44763;50.464;30.612;2024-03-08T00:21:48;34.90;;;23.90;;
58978;SDS011;44763;50.464;30.612;2024-03-08T00:23:50;32.10;;;23.90;;
58978;SDS011;44763;50.464;30.612;2024-03-08T00:25:52;37.00;;;23.40;;
58978;SDS011;44763;50.464;30.612;2024-03-08T00:27:54;33.10;;;22.80;;
58978;SDS011;44763;50.464;30.612;2024-03-08T00:29:58;34.30;;;24.40;;
58978;SDS011;44763;50.464;30.612;2024-03-08T00:32:02;35.50;;;23.10;;
58978;SDS011;44763;50.464;30.612;2024-03-08T00:34:04;38.70;;;24.90;;
58978;SDS011;44763;50.464;30.612;2024-03-08T00:36:06;36.50;;;24.70;;
58978;SDS011;44763;50.464;30.612;2024-03-08T00:38:09;37.10;;;24.60;;
58978;SDS011;44763;50.464;30.612;2024-03-08T00:40:11;38.50;;;24.30;;
58978;SDS011;44763;50.464;30.612;2024-03-08T00:42:13;32.80;;;24.00;;
58978;SDS011;44763;50.464;30.612;2024-03-08T00:44:16;36.30;;;24.30;;
58978;SDS011;44763;50.464;30.612;2024-03-08T00:46:18;32.40;;;22.50;;
58978;SDS011;44763;50.464;30.612;2024-03-08T00:48:20;34.90;;;23.30;;
58978;SDS011;44763;50.464;30.612;2024-03-08T00:50:22;36.20;;;25.30;;
58978;SDS011;44763;50.464;30.612;2024-03-08T00:52:24;34.60;;;24.50;;
58978;SDS011;44763;50.464;30.612;2024-03-08T00:54:26;31.80;;;22.90;;
58978;SDS011;44763;50.464;30.612;2024-03-08T00:56:28;38.00;;;24.70;;
58978;SDS011;44763;50.464;30.612;2024-03-08T00:58:30;34.10;;;24.10;;
58978;SDS011;44763;50.464;30.612;2024-03-08T01:00:32;37.50;;;27.10;;
58978;SDS011;44763;50.464;30.612;2024-03-08T01:02:35;38.60;;;24.60;;
58978;SDS011;44763;50.464;30.612;2024-03-08T01:04:37;34.90;;;23.90;;
58978;SDS011;44763;50.464;30.612;2024-03-08T01:06:39;38.50;;;24.90;;
58978;SDS011;44763;50.464;30.612;2024-03-08T01:08:41;35.70;;;24.90;;
58978;SDS011;44763;50.464;30.612;2024-03-08T01:10:44;37.50;;;26.60;;
58978;SDS011;44763;50.464;30.612;2024-03-08T01:12:45;37.90;;;26.30;;
58978;SDS011;44763;50.464;30.612;2024-03-08T01:14:47;40.80;;;26.40;;
58978;SDS011;44763;50.464;30.612;2024-03-08T01:16:49;37.00;;;27.00;;
58978;SDS011;44763;50.464;30.612;2024-03-08T01:18:51;42.80;;;27.10;;
58978;SDS011;44763;50.464;30.612;2024-03-08T01:20:53;42.50;;;25.90;;
58978;SDS011;44763;50.464;30.612;2024-03-08T01:22:55;39.70;;;27.40;;
58978;SDS011;44763;50.464;30.612;2024-03-08T01:24:57;42.00;;;29.20;;
58978;SDS011;44763;50.464;30.612;2024-03-08T01:26:59;39.60;;;27.00;;
58978;SDS011;44763;50.464;30.612;2024-03-08T01:29:02;41.00;;;26.60;;
58978;SDS011;44763;50.464;30.612;2024-03-08T01:31:04;46.80;;;31.70;;
58978;SDS011;44763;50.464;30.612;2024-03-08T01:33:07;48.60;;;30.30;;
58978;SDS011;44763;50.464;30.612;2024-03-08T01:35:09;44.50;;;30.80;;
58978;SDS011;44763;50.464;30.612;2024-03-08T01:37:11;50.70;;;30.60;;
58978;SDS011;44763;50.464;30.612;2024-03-08T01:39:16;50.50;;;31.40;;
58978;SDS011;44763;50.464;30.612;2024-03-08T01:41:18;46.20;;;30.40;;
58978;SDS011;44763;50.464;30.612;2024-03-08T01:43:22;47.20;;;32.10;;
58978;SDS011;44763;50.464;30.612;2024-03-08T01:45:28;46.40;;;29.70;;
58978;SDS011;44763;50.464;30.612;2024-03-08T01:47:31;47.70;;;31.50;;
58978;SDS011;44763;50.464;30.612;2024-03-08T01:49:34;44.30;;;32.10;;
58978;SDS011;44763;50.464;30.612;2024-03-08T01:51:36;50.00;;;32.10;;
58978;SDS011;44763;50.464;30.612;2024-03-08T01:53:42;45.70;;;31.60;;
58978;SDS011;44763;50.464;30.612;2024-03-08T01:55:47;50.80;;;32.40;;
58978;SDS011;44763;50.464;30.612;2024-03-08T01:57:50;48.30;;;33.70;;
58978;SDS011;44763;50.464;30.612;2024-03-08T01:59:52;51.40;;;32.90;;
58978;SDS011;44763;50.464;30.612;2024-03-08T02:01:56;47.80;;;32.10;;
58978;SDS011;44763;50.464;30.612;2024-03-08T02:04:03;52.40;;;35.10;;
58978;SDS011;44763;50.464;30.612;2024-03-08T02:06:07;60.90;;;38.80;;
58978;SDS011;44763;50.464;30.612;2024-03-08T02:08:11;49.10;;;35.40;;
58978;SDS011;44763;50.464;30.612;2024-03-08T02:10:17;56.60;;;36.50;;
58978;SDS011;44763;50.464;30.612;2024-03-08T02:12:19;58.50;;;37.10;;
58978;SDS011;44763;50.464;30.612;2024-03-08T02:14:25;62.50;;;37.60;;
58978;SDS011;44763;50.464;30.612;2024-03-08T02:16:27;58.20;;;40.50;;
58978;SDS011;44763;50.464;30.612;2024-03-08T02:18:29;58.90;;;37.90;;
58978;SDS011;44763;50.464;30.612;2024-03-08T02:20:33;63.10;;;37.50;;
58978;SDS011;44763;50.464;30.612;2024-03-08T02:22:35;55.80;;;35.40;;
58978;SDS011;44763;50.464;30.612;2024-03-08T02:24:38;54.10;;;34.50;;
58978;SDS011;44763;50.464;30.612;2024-03-08T02:26:39;58.60;;;38.10;;
58978;SDS011;44763;50.464;30.612;2024-03-08T02:28:41;63.10;;;37.70;;
58978;SDS011;44763;50.464;30.612;2024-03-08T02:30:48;56.60;;;38.20;;
58978;SDS011;44763;50.464;30.612;2024-03-08T02:32:52;57.10;;;36.90;;
58978;SDS011;44763;50.464;30.612;2024-03-08T02:34:56;60.50;;;37.40;;
58978;SDS011;44763;50.464;30.612;2024-03-08T02:37:01;58.90;;;36.90;;
58978;SDS011;44763;50.464;30.612;2024-03-08T02:39:03;55.10;;;35.00;;
58978;SDS011;44763;50.464;30.612;2024-03-08T02:41:07;62.70;;;36.00;;
58978;SDS011;44763;50.464;30.612;2024-03-08T02:43:10;58.60;;;36.20;;
58978;SDS011;44763;50.464;30.612;2024-03-08T02:45:13;55.80;;;36.00;;
58978;SDS011;44763;50.464;30.612;2024-03-08T02:47:15;56.70;;;36.00;;
58978;SDS011;44763;50.464;30.612;2024-03-08T02:49:17;59.30;;;38.10;;
58978;SDS011;44763;50.464;30.612;2024-03-08T02:51:18;67.20;;;39.50;;
58978;SDS011;44763;50.464;30.612;2024-03-08T02:53:21;55.50;;;38.40;;
58978;SDS011;44763;50.464;30.612;2024-03-08T02:55:24;62.80;;;39.50;;
58978;SDS011;44763;50.464;30.612;2024-03-08T02:57:27;62.00;;;39.40;;
58978;SDS011;44763;50.464;30.612;2024-03-08T02:59:29;66.40;;;41.20;;
58978;SDS011;44763;50.464;30.612;2024-03-08T03:01:31;60.00;;;38.90;;
58978;SDS011;44763;50.464;30.612;2024-03-08T03:03:33;63.90;;;40.80;;
58978;SDS011;44763;50.464;30.612;2024-03-08T03:05:35;64.30;;;41.50;;
58978;SDS011;44763;50.464;30.612;2024-03-08T03:07:37;61.20;;;41.70;;
58978;SDS011;44763;50.464;30.612;2024-03-08T03:09:39;65.40;;;40.50;;
58978;SDS011;44763;50.464;30.612;2024-03-08T03:11:44;65.10;;;40.80;;
58978;SDS011;44763;50.464;30.612;2024-03-08T03:13:46;65.10;;;41.50;;
58978;SDS011;44763;50.464;30.612;2024-03-08T03:15:50;67.20;;;43.00;;
58978;SDS011;44763;50.464;30.612;2024-03-08T03:17:53;70.80;;;42.90;;
58978;SDS011;44763;50.464;30.612;2024-03-08T03:19:55;71.60;;;44.20;;
58978;SDS011;44763;50.464;30.612;2024-03-08T03:21:57;67.00;;;43.20;;
58978;SDS011;44763;50.464;30.612;2024-03-08T03:23:58;72.30;;;43.10;;
58978;SDS011;44763;50.464;30.612;2024-03-08T03:26:00;60.50;;;40.40;;
58978;SDS011;44763;50.464;30.612;2024-03-08T03:28:04;66.70;;;41.30;;
58978;SDS011;44763;50.464;30.612;2024-03-08T03:30:06;58.60;;;38.90;;
58978;SDS011;44763;50.464;30.612;2024-03-08T03:32:23;69.10;;;42.70;;
58978;SDS011;44763;50.464;30.612;2024-03-08T03:34:25;65.40;;;43.30;;
58978;SDS011;44763;50.464;30.612;2024-03-08T03:36:27;64.80;;;41.80;;
58978;SDS011;44763;50.464;30.612;2024-03-08T03:38:30;68.40;;;41.50;;
58978;SDS011;44763;50.464;30.612;2024-03-08T03:40:33;67.60;;;40.70;;
58978;SDS011;44763;50.464;30.612;2024-03-08T03:42:35;67.10;;;39.20;;
58978;SDS011;44763;50.464;30.612;2024-03-08T03:44:39;59.50;;;38.50;;
58978;SDS011;44763;50.464;30.612;2024-03-08T03:46:41;59.20;;;38.70;;
58978;SDS011;44763;50.464;30.612;2024-03-08T03:48:48;54.30;;;35.80;;
58978;SDS011;44763;50.464;30.612;2024-03-08T03:50:50;59.20;;;37.60;;
58978;SDS011;44763;50.464;30.612;2024-03-08T03:52:53;56.50;;;35.10;;
58978;SDS011;44763;50.464;30.612;2024-03-08T03:54:55;56.00;;;35.10;;
58978;SDS011;44763;50.464;30.612;2024-03-08T03:56:56;48.30;;;32.10;;
58978;SDS011;44763;50.464;30.612;2024-03-08T03:58:58;50.00;;;33.00;;
58978;SDS011;44763;50.464;30.612;2024-03-08T04:01:00;53.30;;;33.40;;
58978;SDS011;44763;50.464;30.612;2024-03-08T04:03:02;49.60;;;32.90;;
58978;SDS011;44763;50.464;30.612;2024-03-08T04:05:05;46.00;;;29.90;;
58978;SDS011;44763;50.464;30.612;2024-03-08T04:07:08;48.70;;;32.40;;
58978;SDS011;44763;50.464;30.612;2024-03-08T04:09:12;42.20;;;30.40;;
58978;SDS011;44763;50.464;30.612;2024-03-08T04:11:14;45.10;;;30.00;;
58978;SDS011;44763;50.464;30.612;2024-03-08T04:13:18;49.40;;;31.20;;
58978;SDS011;44763;50.464;30.612;2024-03-08T04:15:22;44.10;;;29.60;;
58978;SDS011;44763;50.464;30.612;2024-03-08T04:17:24;43.80;;;30.30;;
58978;SDS011;44763;50.464;30.612;2024-03-08T04:19:26;41.00;;;26.80;;
58978;SDS011;44763;50.464;30.612;2024-03-08T04:21:29;44.10;;;29.80;;
58978;SDS011;44763;50.464;30.612;2024-03-08T04:23:32;39.00;;;27.70;;
58978;SDS011;44763;50.464;30.612;2024-03-08T04:27:39;43.40;;;27.00;;
58978;SDS011;44763;50.464;30.612;2024-03-08T04:29:42;42.70;;;27.20;;
58978;SDS011;44763;50.464;30.612;2024-03-08T04:31:44;47.20;;;28.10;;
58978;SDS011;44763;50.464;30.612;2024-03-08T04:33:46;41.70;;;29.00;;
58978;SDS011;44763;50.464;30.612;2024-03-08T04:35:48;40.70;;;28.70;;
58978;SDS011;44763;50.464;30.612;2024-03-08T04:37:50;40.10;;;29.10;;
58978;SDS011;44763;50.464;30.612;2024-03-08T04:39:52;41.30;;;29.40;;
58978;SDS011;44763;50.464;30.612;2024-03-08T04:41:55;35.60;;;25.90;;
58978;SDS011;44763;50.464;30.612;2024-03-08T04:44:04;37.90;;;27.10;;
58978;SDS011;44763;50.464;30.612;2024-03-08T04:46:07;41.40;;;27.60;;
58978;SDS011;44763;50.464;30.612;2024-03-08T04:48:08;39.90;;;28.00;;
58978;SDS011;44763;50.464;30.612;2024-03-08T04:50:10;36.30;;;25.90;;
58978;SDS011;44763;50.464;30.612;2024-03-08T04:52:12;37.90;;;27.50;;
58978;SDS011;44763;50.464;30.612;2024-03-08T04:54:14;42.60;;;28.00;;
58978;SDS011;44763;50.464;30.612;2024-03-08T04:56:16;36.20;;;26.10;;
58978;SDS011;44763;50.464;30.612;2024-03-08T04:58:18;36.80;;;27.10;;
58978;SDS011;44763;50.464;30.612;2024-03-08T05:00:19;40.60;;;26.00;;
58978;SDS011;44763;50.464;30.612;2024-03-08T05:02:22;35.00;;;25.90;;
58978;SDS011;44763;50.464;30.612;2024-03-08T05:04:24;38.90;;;26.50;;
58978;SDS011;44763;50.464;30.612;2024-03-08T05:06:26;39.40;;;28.50;;
58978;SDS011;44763;50.464;30.612;2024-03-08T05:08:28;37.70;;;27.40;;
58978;SDS011;44763;50.464;30.612;2024-03-08T05:10:30;35.00;;;27.20;;
58978;SDS011;44763;50.464;30.612;2024-03-08T05:12:32;36.30;;;27.70;;
58978;SDS011;44763;50.464;30.612;2024-03-08T05:14:34;37.30;;;28.20;;
58978;SDS011;44763;50.464;30.612;2024-03-08T05:16:38;39.50;;;28.60;;
58978;SDS011;44763;50.464;30.612;2024-03-08T05:18:41;37.80;;;29.40;;
58978;SDS011;44763;50.464;30.612;2024-03-08T05:20:44;43.20;;;32.20;;
58978;SDS011;44763;50.464;30.612;2024-03-08T05:22:46;42.00;;;31.70;;
58978;SDS011;44763;50.464;30.612;2024-03-08T05:24:48;39.70;;;30.50;;
58978;SDS011;44763;50.464;30.612;2024-03-08T05:26:51;38.90;;;29.30;;
58978;SDS011;44763;50.464;30.612;2024-03-08T05:28:53;42.10;;;31.20;;
58978;SDS011;44763;50.464;30.612;2024-03-08T05:30:55;40.90;;;31.60;;
58978;SDS011;44763;50.464;30.612;2024-03-08T05:32:58;36.10;;;29.80;;
58978;SDS011;44763;50.464;30.612;2024-03-08T05:35:01;35.90;;;29.90;;
58978;SDS011;44763;50.464;30.612;2024-03-08T05:37:04;39.60;;;29.60;;
58978;SDS011;44763;50.464;30.612;2024-03-08T05:39:06;41.80;;;29.70;;
58978;SDS011;44763;50.464;30.612;2024-03-08T05:41:09;38.60;;;30.60;;
58978;SDS011;44763;50.464;30.612;2024-03-08T05:43:13;42.70;;;32.90;;
58978;SDS011;44763;50.464;30.612;2024-03-08T05:45:15;47.80;;;31.40;;
58978;SDS011;44763;50.464;30.612;2024-03-08T05:47:17;42.30;;;32.30;;
58978;SDS011;44763;50.464;30.612;2024-03-08T05:49:19;40.30;;;32.60;;
58978;SDS011;44763;50.464;30.612;2024-03-08T05:51:23;44.80;;;35.90;;
58978;SDS011;44763;50.464;30.612;2024-03-08T05:53:25;49.40;;;40.60;;
58978;SDS011;44763;50.464;30.612;2024-03-08T05:55:28;51.90;;;40.20;;
58978;SDS011;44763;50.464;30.612;2024-03-08T05:57:32;44.90;;;36.70;;
58978;SDS011;44763;50.464;30.612;2024-03-08T05:59:34;52.90;;;39.90;;
58978;SDS011;44763;50.464;30.612;2024-03-08T06:01:37;49.40;;;37.60;;
58978;SDS011;44763;50.464;30.612;2024-03-08T06:03:39;44.30;;;35.50;;
58978;SDS011;44763;50.464;30.612;2024-03-08T06:05:47;50.00;;;37.80;;
58978;SDS011;44763;50.464;30.612;2024-03-08T06:07:50;49.40;;;38.50;;
58978;SDS011;44763;50.464;30.612;2024-03-08T06:09:54;51.90;;;38.40;;
58978;SDS011;44763;50.464;30.612;2024-03-08T06:11:56;46.10;;;37.40;;
58978;SDS011;44763;50.464;30.612;2024-03-08T06:13:58;45.50;;;34.90;;
58978;SDS011;44763;50.464;30.612;2024-03-08T06:16:02;44.70;;;36.20;;
58978;SDS011;44763;50.464;30.612;2024-03-08T06:18:07;47.30;;;36.20;;
58978;SDS011;44763;50.464;30.612;2024-03-08T06:20:12;44.20;;;35.70;;
58978;SDS011;44763;50.464;30.612;2024-03-08T06:22:15;47.60;;;36.60;;
58978;SDS011;44763;50.464;30.612;2024-03-08T06:24:17;45.10;;;35.10;;
58978;SDS011;44763;50.464;30.612;2024-03-08T06:26:19;46.40;;;34.10;;
58978;SDS011;44763;50.464;30.612;2024-03-08T06:28:23;46.20;;;36.00;;
58978;SDS011;44763;50.464;30.612;2024-03-08T06:30:25;46.40;;;34.80;;
58978;SDS011;44763;50.464;30.612;2024-03-08T06:32:27;45.40;;;36.90;;
58978;SDS011;44763;50.464;30.612;2024-03-08T06:34:29;46.10;;;34.60;;
58978;SDS011;44763;50.464;30.612;2024-03-08T06:36:31;44.50;;;35.20;;
58978;SDS011;44763;50.464;30.612;2024-03-08T06:38:32;46.70;;;36.10;;
58978;SDS011;44763;50.464;30.612;2024-03-08T06:40:35;46.60;;;38.20;;
58978;SDS011;44763;50.464;30.612;2024-03-08T06:42:37;58.70;;;39.20;;
58978;SDS011;44763;50.464;30.612;2024-03-08T06:44:38;46.10;;;36.50;;
58978;SDS011;44763;50.464;30.612;2024-03-08T06:46:47;52.40;;;37.80;;
58978;SDS011;44763;50.464;30.612;2024-03-08T06:48:49;61.00;;;38.30;;
58978;SDS011;44763;50.464;30.612;2024-03-08T06:50:52;50.20;;;35.30;;
58978;SDS011;44763;50.464;30.612;2024-03-08T06:52:53;46.30;;;38.00;;
58978;SDS011;44763;50.464;30.612;2024-03-08T06:54:55;48.80;;;37.60;;
58978;SDS011;44763;50.464;30.612;2024-03-08T06:56:58;53.70;;;36.30;;
58978;SDS011;44763;50.464;30.612;2024-03-08T06:59:00;48.40;;;36.40;;
58978;SDS011;44763;50.464;30.612;2024-03-08T07:01:04;60.70;;;39.50;;
58978;SDS011;44763;50.464;30.612;2024-03-08T07:03:09;55.90;;;36.70;;
58978;SDS011;44763;50.464;30.612;2024-03-08T07:05:14;53.10;;;38.50;;
58978;SDS011;44763;50.464;30.612;2024-03-08T07:07:18;52.10;;;36.80;;
58978;SDS011;44763;50.464;30.612;2024-03-08T07:09:22;56.20;;;37.40;;
58978;SDS011;44763;50.464;30.612;2024-03-08T07:11:24;55.00;;;37.70;;
58978;SDS011;44763;50.464;30.612;2024-03-08T07:13:26;45.20;;;33.80;;
58978;SDS011;44763;50.464;30.612;2024-03-08T07:15:30;48.80;;;35.60;;
58978;SDS011;44763;50.464;30.612;2024-03-08T07:17:32;51.30;;;35.80;;
58978;SDS011;44763;50.464;30.612;2024-03-08T07:19:36;49.10;;;35.80;;
58978;SDS011;44763;50.464;30.612;2024-03-08T07:21:40;46.00;;;34.50;;
58978;SDS011;44763;50.464;30.612;2024-03-08T07:23:42;44.70;;;33.10;;
58978;SDS011;44763;50.464;30.612;2024-03-08T07:26:02;49.50;;;35.10;;
58978;SDS011;44763;50.464;30.612;2024-03-08T07:28:04;50.10;;;33.80;;
58978;SDS011;44763;50.464;30.612;2024-03-08T07:30:10;46.30;;;33.80;;
58978;SDS011;44763;50.464;30.612;2024-03-08T07:32:12;49.80;;;35.70;;
58978;SDS011;44763;50.464;30.612;2024-03-08T07:34:23;50.30;;;33.70;;
58978;SDS011;44763;50.464;30.612;2024-03-08T07:36:25;44.30;;;32.10;;
58978;SDS011;44763;50.464;30.612;2024-03-08T07:38:27;42.40;;;31.80;;
58978;SDS011;44763;50.464;30.612;2024-03-08T07:40:28;47.90;;;32.30;;
58978;SDS011;44763;50.464;30.612;2024-03-08T07:42:30;48.70;;;33.50;;
58978;SDS011;44763;50.464;30.612;2024-03-08T07:44:32;40.40;;;30.00;;
58978;SDS011;44763;50.464;30.612;2024-03-08T07:46:34;48.30;;;31.90;;
58978;SDS011;44763;50.464;30.612;2024-03-08T07:48:36;45.80;;;30.30;;
58978;SDS011;44763;50.464;30.612;2024-03-08T07:50:40;42.40;;;33.60;;
58978;SDS011;44763;50.464;30.612;2024-03-08T07:52:42;39.80;;;29.50;;
58978;SDS011;44763;50.464;30.612;2024-03-08T07:54:44;43.20;;;28.80;;
58978;SDS011;44763;50.464;30.612;2024-03-08T07:56:46;36.60;;;25.70;;
58978;SDS011;44763;50.464;30.612;2024-03-08T07:58:48;40.60;;;26.70;;
58978;SDS011;44763;50.464;30.612;2024-03-08T08:00:50;41.40;;;29.40;;
58978;SDS011;44763;50.464;30.612;2024-03-08T08:02:53;51.60;;;31.20;;
58978;SDS011;44763;50.464;30.612;2024-03-08T08:04:55;45.00;;;29.50;;
58978;SDS011;44763;50.464;30.612;2024-03-08T08:07:00;37.40;;;26.60;;
58978;SDS011;44763;50.464;30.612;2024-03-08T08:09:03;34.20;;;25.70;;
58978;SDS011;44763;50.464;30.612;2024-03-08T08:11:06;35.50;;;24.10;;
58978;SDS011;44763;50.464;30.612;2024-03-08T08:13:10;41.50;;;25.50;;
58978;SDS011;44763;50.464;30.612;2024-03-08T08:15:14;35.70;;;25.00;;
58978;SDS011;44763;50.464;30.612;2024-03-08T08:17:16;35.20;;;25.30;;
58978;SDS011;44763;50.464;30.612;2024-03-08T08:19:18;46.80;;;27.30;;
58978;SDS011;44763;50.464;30.612;2024-03-08T08:21:20;33.70;;;25.50;;
58978;SDS011;44763;50.464;30.612;2024-03-08T08:23:23;35.50;;;25.90;;
58978;SDS011;44763;50.464;30.612;2024-03-08T08:25:25;31.60;;;24.50;;
58978;SDS011;44763;50.464;30.612;2024-03-08T08:27:27;29.20;;;23.10;;
58978;SDS011;44763;50.464;30.612;2024-03-08T08:29:29;28.20;;;20.70;;
58978;SDS011;44763;50.464;30.612;2024-03-08T08:31:31;33.70;;;22.80;;
58978;SDS011;44763;50.464;30.612;2024-03-08T08:33:34;28.90;;;22.50;;
58978;SDS011;44763;50.464;30.612;2024-03-08T08:35:37;32.00;;;21.60;;
58978;SDS011;44763;50.464;30.612;2024-03-08T08:37:39;28.70;;;22.10;;
58978;SDS011;44763;50.464;30.612;2024-03-08T08:39:41;26.40;;;19.30;;
58978;SDS011;44763;50.464;30.612;2024-03-08T08:41:43;26.00;;;18.80;;
58978;SDS011;44763;50.464;30.612;2024-03-08T08:43:45;30.80;;;20.00;;
58978;SDS011;44763;50.464;30.612;2024-03-08T08:46:03;26.80;;;19.80;;
58978;SDS011;44763;50.464;30.612;2024-03-08T08:48:06;28.20;;;20.70;;
58978;SDS011;44763;50.464;30.612;2024-03-08T08:50:08;26.10;;;18.30;;
58978;SDS011;44763;50.464;30.612;2024-03-08T08:52:13;22.50;;;17.20;;
58978;SDS011;44763;50.464;30.612;2024-03-08T08:54:18;22.00;;;17.30;;
58978;SDS011;44763;50.464;30.612;2024-03-08T08:56:20;22.60;;;17.30;;
58978;SDS011;44763;50.464;30.612;2024-03-08T08:58:24;26.80;;;18.30;;
58978;SDS011;44763;50.464;30.612;2024-03-08T09:00:26;27.10;;;17.70;;
58978;SDS011;44763;50.464;30.612;2024-03-08T09:02:29;29.00;;;18.90;;
58978;SDS011;44763;50.464;30.612;2024-03-08T09:04:32;24.50;;;17.50;;
58978;SDS011;44763;50.464;30.612;2024-03-08T09:06:34;20.00;;;15.40;;
58978;SDS011;44763;50.464;30.612;2024-03-08T09:08:37;26.30;;;14.80;;
58978;SDS011;44763;50.464;30.612;2024-03-08T09:10:42;18.80;;;13.40;;
58978;SDS011;44763;50.464;30.612;2024-03-08T09:12:44;17.20;;;12.70;;
58978;SDS011;44763;50.464;30.612;2024-03-08T09:14:46;13.80;;;10.80;;
58978;SDS011;44763;50.464;30.612;2024-03-08T09:16:49;12.80;;;10.70;;
58978;SDS011;44763;50.464;30.612;2024-03-08T09:18:51;14.20;;;10.70;;
58978;SDS011;44763;50.464;30.612;2024-03-08T09:20:52;14.80;;;10.30;;
58978;SDS011;44763;50.464;30.612;2024-03-08T09:22:55;11.00;;;9.80;;
58978;SDS011;44763;50.464;30.612;2024-03-08T09:24:57;15.30;;;10.20;;
58978;SDS011;44763;50.464;30.612;2024-03-08T09:26:59;11.50;;;9.40;;
58978;SDS011;44763;50.464;30.612;2024-03-08T09:29:01;18.00;;;11.00;;
58978;SDS011;44763;50.464;30.612;2024-03-08T09:31:03;12.00;;;9.70;;
58978;SDS011;44763;50.464;30.612;2024-03-08T09:33:07;14.00;;;10.00;;
58978;SDS011;44763;50.464;30.612;2024-03-08T09:35:09;15.60;;;11.10;;
58978;SDS011;44763;50.464;30.612;2024-03-08T09:37:11;14.40;;;10.70;;
58978;SDS011;44763;50.464;30.612;2024-03-08T09:39:14;14.80;;;11.50;;
58978;SDS011;44763;50.464;30.612;2024-03-08T09:41:18;12.90;;;10.10;;
58978;SDS011;44763;50.464;30.612;2024-03-08T09:43:20;20.40;;;11.10;;
58978;SDS011;44763;50.464;30.612;2024-03-08T09:45:23;12.90;;;10.20;;
58978;SDS011;44763;50.464;30.612;2024-03-08T09:47:27;15.70;;;10.30;;
58978;SDS011;44763;50.464;30.612;2024-03-08T09:49:35;11.10;;;9.00;;
58978;SDS011;44763;50.464;30.612;2024-03-08T09:51:40;14.10;;;10.00;;
58978;SDS011;44763;50.464;30.612;2024-03-08T09:53:43;11.90;;;9.90;;
58978;SDS011;44763;50.464;30.612;2024-03-08T09:55:45;12.00;;;9.40;;
58978;SDS011;44763;50.464;30.612;2024-03-08T09:57:47;10.40;;;8.90;;
58978;SDS011;44763;50.464;30.612;2024-03-08T10:00:10;11.30;;;9.40;;
58978;SDS011;44763;50.464;30.612;2024-03-08T10:02:24;13.50;;;8.80;;
58978;SDS011;44763;50.464;30.612;2024-03-08T10:04:26;11.30;;;9.10;;
58978;SDS011;44763;50.464;30.612;2024-03-08T10:06:32;13.20;;;9.60;;
58978;SDS011;44763;50.464;30.612;2024-03-08T10:08:35;11.10;;;8.70;;
58978;SDS011;44763;50.464;30.612;2024-03-08T10:10:38;10.20;;;8.80;;
58978;SDS011;44763;50.464;30.612;2024-03-08T10:12:40;11.40;;;9.00;;
58978;SDS011;44763;50.464;30.612;2024-03-08T10:16:13;10.00;;;7.90;;
58978;SDS011;44763;50.464;30.612;2024-03-08T10:18:15;8.60;;;7.30;;
58978;SDS011;44763;50.464;30.612;2024-03-08T10:20:19;11.40;;;7.80;;
58978;SDS011;44763;50.464;30.612;2024-03-08T10:22:22;13.20;;;8.40;;
58978;SDS011;44763;50.464;30.612;2024-03-08T10:24:25;11.60;;;9.40;;
58978;SDS011;44763;50.464;30.612;2024-03-08T10:26:27;12.40;;;9.80;;
58978;SDS011;44763;50.464;30.612;2024-03-08T10:28:29;11.70;;;8.60;;
58978;SDS011;44763;50.464;30.612;2024-03-08T10:30:31;11.10;;;8.00;;
58978;SDS011;44763;50.464;30.612;2024-03-08T10:32:34;11.60;;;8.50;;
58978;SDS011;44763;50.464;30.612;2024-03-08T10:34:36;9.30;;;7.50;;
58978;SDS011;44763;50.464;30.612;2024-03-08T10:36:37;9.30;;;7.60;;
58978;SDS011;44763;50.464;30.612;2024-03-08T10:38:42;10.30;;;8.40;;
58978;SDS011;44763;50.464;30.612;2024-03-08T10:40:49;10.00;;;8.10;;
58978;SDS011;44763;50.464;30.612;2024-03-08T10:42:54;12.50;;;9.30;;
58978;SDS011;44763;50.464;30.612;2024-03-08T10:45:03;15.30;;;10.60;;
58978;SDS011;44763;50.464;30.612;2024-03-08T10:49:30;10.20;;;8.60;;
58978;SDS011;44763;50.464;30.612;2024-03-08T10:51:36;11.40;;;8.50;;
58978;SDS011;44763;50.464;30.612;2024-03-08T10:53:41;13.70;;;10.30;;
58978;SDS011;44763;50.464;30.612;2024-03-08T10:55:44;12.60;;;10.40;;
58978;SDS011;44763;50.464;30.612;2024-03-08T10:57:48;13.70;;;11.60;;
58978;SDS011;44763;50.464;30.612;2024-03-08T10:59:51;16.00;;;12.70;;
58978;SDS011;44763;50.464;30.612;2024-03-08T11:01:56;13.40;;;10.50;;
58978;SDS011;44763;50.464;30.612;2024-03-08T11:03:58;15.20;;;9.40;;
58978;SDS011;44763;50.464;30.612;2024-03-08T11:06:00;12.90;;;9.60;;
58978;SDS011;44763;50.464;30.612;2024-03-08T11:08:02;13.50;;;10.40;;
58978;SDS011;44763;50.464;30.612;2024-03-08T11:10:06;17.20;;;10.40;;
58978;SDS011;44763;50.464;30.612;2024-03-08T11:12:26;14.90;;;11.30;;
58978;SDS011;44763;50.464;30.612;2024-03-08T11:14:47;14.00;;;10.40;;
58978;SDS011;44763;50.464;30.612;2024-03-08T11:16:53;18.00;;;10.80;;
58978;SDS011;44763;50.464;30.612;2024-03-08T11:18:59;12.70;;;9.70;;
58978;SDS011;44763;50.464;30.612;2024-03-08T11:21:12;14.60;;;9.70;;
58978;SDS011;44763;50.464;30.612;2024-03-08T11:23:16;13.20;;;10.30;;
58978;SDS011;44763;50.464;30.612;2024-03-08T11:25:38;14.20;;;9.10;;
58978;SDS011;44763;50.464;30.612;2024-03-08T11:27:52;11.70;;;9.00;;
58978;SDS011;44763;50.464;30.612;2024-03-08T11:30:02;13.70;;;9.50;;
58978;SDS011;44763;50.464;30.612;2024-03-08T11:32:19;11.80;;;9.10;;
58978;SDS011;44763;50.464;30.612;2024-03-08T11:34:23;15.10;;;11.20;;
58978;SDS011;44763;50.464;30.612;2024-03-08T11:36:27;14.10;;;8.10;;
58978;SDS011;44763;50.464;30.612;2024-03-08T11:38:32;12.40;;;8.10;;
58978;SDS011;44763;50.464;30.612;2024-03-08T11:40:35;10.30;;;7.80;;
58978;SDS011;44763;50.464;30.612;2024-03-08T11:42:37;13.80;;;9.80;;
58978;SDS011;44763;50.464;30.612;2024-03-08T11:44:39;15.60;;;11.50;;
58978;SDS011;44763;50.464;30.612;2024-03-08T11:46:45;26.90;;;19.70;;
58978;SDS011;44763;50.464;30.612;2024-03-08T11:48:49;21.40;;;14.00;;
58978;SDS011;44763;50.464;30.612;2024-03-08T11:50:59;13.00;;;9.70;;
58978;SDS011;44763;50.464;30.612;2024-03-08T11:53:03;11.60;;;8.50;;
58978;SDS011;44763;50.464;30.612;2024-03-08T11:55:06;15.20;;;8.90;;
58978;SDS011;44763;50.464;30.612;2024-03-08T11:57:09;10.60;;;8.20;;
58978;SDS011;44763;50.464;30.612;2024-03-08T11:59:14;10.10;;;9.10;;